createdAt,value
2018-06-03T06:22:27.791Z,11.00
2018-06-03T06:23:28.499Z,9.10
2018-06-03T06:24:34.793Z,9.30
2018-06-03T06:25:35.975Z,9.20
2018-06-03T06:26:38.367Z,7.90
2018-06-03T06:27:38.995Z,8.20
2018-06-03T06:28:46.464Z,7.70
2018-06-03T06:29:58.316Z,7.80
2018-06-03T06:30:58.919Z,8.20
2018-06-03T06:32:59.804Z,7.70
2018-06-03T06:34:00.418Z,7.70
2018-06-03T06:35:01.048Z,7.30
2018-06-03T06:36:01.670Z,7.70
2018-06-03T06:37:02.269Z,7.60
2018-06-03T06:38:02.836Z,7.10
2018-06-03T06:39:03.452Z,7.50
2018-06-03T06:40:04.040Z,7.70
2018-06-03T06:41:04.694Z,7.60
2018-06-03T06:42:05.336Z,7.20
2018-06-03T06:43:06.018Z,7.90
2018-06-03T06:44:06.633Z,8.10
2018-06-03T06:45:07.217Z,8.50
2018-06-03T06:46:07.840Z,8.20
2018-06-03T06:47:08.431Z,8.80
2018-06-03T06:48:09.043Z,8.40
2018-06-03T06:49:09.679Z,7.50
2018-06-03T06:50:10.469Z,8.00
2018-06-03T06:51:11.143Z,7.80
2018-06-03T06:52:11.710Z,7.80
2018-06-03T06:53:12.334Z,7.70
2018-06-03T06:54:15.624Z,7.60
2018-06-03T06:55:16.224Z,7.40
2018-06-03T06:56:16.821Z,7.50
2018-06-03T06:57:17.483Z,7.10
2018-06-03T06:58:17.994Z,7.20
2018-06-03T06:59:18.589Z,7.50
2018-06-03T07:00:19.196Z,7.80
2018-06-03T07:01:19.786Z,7.20
2018-06-03T07:02:20.414Z,7.10
2018-06-03T07:03:21.071Z,7.30
2018-06-03T07:04:21.649Z,7.20
2018-06-03T07:05:22.272Z,7.30
2018-06-03T07:06:22.998Z,7.10
2018-06-03T07:07:23.590Z,7.50
2018-06-03T07:08:24.319Z,7.30
2018-06-03T07:09:24.926Z,7.60
2018-06-03T07:10:25.573Z,7.60
2018-06-03T07:11:26.252Z,7.30
2018-06-03T07:12:26.825Z,7.10
2018-06-03T07:13:27.450Z,7.50
2018-06-03T07:14:28.092Z,7.20
2018-06-03T07:15:28.712Z,7.50
2018-06-03T07:16:29.315Z,7.00
2018-06-03T07:17:29.938Z,7.10
2018-06-03T07:18:30.561Z,6.60
2018-06-03T07:19:31.796Z,6.80
2018-06-03T07:20:32.473Z,7.10
2018-06-03T07:21:33.096Z,7.10
2018-06-03T07:22:33.700Z,6.80
2018-06-03T07:23:34.333Z,7.20
2018-06-03T07:24:34.967Z,7.40
2018-06-03T07:25:35.690Z,7.50
2018-06-03T07:26:36.313Z,7.10
2018-06-03T07:27:36.913Z,7.00
2018-06-03T07:28:37.504Z,7.20
2018-06-03T07:29:38.088Z,7.30
2018-06-03T07:30:38.725Z,7.20
2018-06-03T07:31:39.443Z,6.50
2018-06-03T07:32:40.012Z,7.00
2018-06-03T07:33:40.594Z,6.50
2018-06-03T07:34:41.213Z,8.20
2018-06-03T07:35:41.816Z,6.70
2018-06-03T07:36:42.414Z,6.10
2018-06-03T07:37:43.012Z,6.90
2018-06-03T07:38:43.594Z,6.50
2018-06-03T07:39:44.185Z,7.80
2018-06-03T07:40:44.873Z,6.40
2018-06-03T07:41:45.490Z,6.00
2018-06-03T07:42:46.125Z,6.60
2018-06-03T07:43:46.773Z,6.80
2018-06-03T07:44:47.365Z,6.50
2018-06-03T07:45:47.949Z,6.80
2018-06-03T07:46:48.515Z,6.80
2018-06-03T07:47:49.184Z,6.40
2018-06-03T07:48:49.947Z,6.40
2018-06-03T07:50:50.895Z,6.60
2018-06-03T07:51:51.500Z,6.20
2018-06-03T07:52:53.021Z,7.10
2018-06-03T07:53:53.710Z,5.90
2018-06-03T07:54:54.309Z,5.60
2018-06-03T07:55:54.903Z,6.30
2018-06-03T07:56:55.480Z,6.10
2018-06-03T07:57:56.126Z,8.20
2018-06-03T07:58:56.780Z,6.90
2018-06-03T07:59:57.378Z,6.60
2018-06-03T08:00:57.995Z,6.20
2018-06-03T08:01:58.558Z,6.00
2018-06-03T08:02:59.261Z,5.60
2018-06-03T08:03:59.875Z,6.20
2018-06-03T08:05:00.453Z,5.50
2018-06-03T08:06:01.078Z,5.70
2018-06-03T08:07:01.713Z,5.70
2018-06-03T08:08:02.312Z,5.60
2018-06-03T08:09:02.936Z,5.20
2018-06-03T08:10:03.515Z,5.20
2018-06-03T08:11:04.136Z,5.00
2018-06-03T08:12:04.805Z,5.20
2018-06-03T08:13:05.405Z,5.60
2018-06-03T08:14:06.034Z,6.30
2018-06-03T08:15:06.635Z,5.80
2018-06-03T08:16:07.244Z,5.80
2018-06-03T08:17:07.827Z,4.80
2018-06-03T08:18:08.445Z,5.90
2018-06-03T08:19:09.037Z,5.20
2018-06-03T08:20:09.643Z,5.50
2018-06-03T08:21:10.219Z,6.00
2018-06-03T08:22:10.866Z,5.30
2018-06-03T08:48:44.120Z,3.70
2018-06-03T08:49:44.736Z,4.20
2018-06-03T08:50:45.339Z,4.50
2018-06-03T08:51:46.520Z,5.00
2018-06-03T08:52:47.110Z,4.90
2018-06-03T08:53:47.745Z,4.20
2018-06-03T08:54:48.320Z,4.90
2018-06-03T08:55:48.907Z,4.40
2018-06-03T08:56:49.588Z,4.40
2018-06-03T08:57:50.197Z,4.40
2018-06-03T08:58:50.847Z,4.60
2018-06-03T08:59:51.445Z,4.40
2018-06-03T09:00:52.105Z,4.40
2018-06-03T09:01:52.722Z,4.10
2018-06-03T09:02:54.378Z,4.80
2018-06-03T09:03:54.947Z,4.40
2018-06-03T09:04:56.523Z,4.10
2018-06-03T09:05:57.136Z,3.90
2018-06-03T09:06:57.790Z,3.60
2018-06-03T09:07:58.421Z,3.70
2018-06-03T09:08:59.056Z,3.80
2018-06-03T09:09:59.683Z,4.90
2018-06-03T09:11:00.320Z,3.60
2018-06-03T09:12:00.963Z,3.70
2018-06-03T09:13:01.659Z,3.60
2018-06-03T09:14:02.319Z,4.50
2018-06-03T09:15:02.995Z,4.60
2018-06-03T09:16:03.569Z,3.40
2018-06-03T09:17:04.155Z,3.40
2018-06-03T09:18:04.793Z,3.60
2018-06-03T09:19:05.412Z,3.90
2018-06-03T09:20:06.055Z,4.20
2018-06-03T09:21:06.699Z,3.60
2018-06-03T09:22:07.278Z,3.70
2018-06-03T09:23:07.908Z,4.40
2018-06-03T09:24:08.500Z,4.00
2018-06-03T09:25:09.085Z,4.10
2018-06-03T09:26:09.747Z,4.30
2018-06-03T09:27:10.367Z,3.50
2018-06-03T09:28:10.950Z,3.60
2018-06-03T09:29:11.526Z,3.50
2018-06-03T09:30:12.181Z,4.00
2018-06-03T09:31:12.799Z,3.50
2018-06-03T09:32:13.455Z,3.20
2018-06-03T09:33:14.073Z,3.50
2018-06-03T09:34:14.755Z,3.80
2018-06-03T09:35:15.377Z,3.60
2018-06-03T09:36:16.026Z,3.40
2018-06-03T09:37:16.644Z,3.30
2018-06-03T09:38:17.252Z,3.20
2018-06-03T09:39:17.852Z,3.50
2018-06-03T09:40:18.466Z,4.70
2018-06-03T09:41:19.104Z,3.60
2018-06-03T09:42:19.760Z,3.70
2018-06-03T09:43:20.355Z,4.50
2018-06-03T09:44:20.994Z,3.90
2018-06-03T09:45:21.695Z,3.40
2018-06-03T09:46:22.321Z,3.50
2018-06-03T09:47:22.917Z,3.10
2018-06-03T09:48:23.579Z,3.80
2018-06-03T09:49:24.225Z,3.40
2018-06-03T09:50:24.804Z,3.40
2018-06-03T09:51:25.419Z,3.70
2018-06-03T09:52:26.725Z,3.20
2018-06-03T09:53:27.300Z,3.30
2018-06-03T09:54:27.902Z,3.30
2018-06-03T09:55:28.603Z,3.60
2018-06-03T09:56:29.208Z,3.40
2018-06-03T09:57:29.787Z,3.40
2018-06-03T09:58:30.445Z,3.40
2018-06-03T09:59:31.033Z,3.40
2018-06-03T10:00:31.774Z,3.10
2018-06-03T10:01:32.306Z,3.30
2018-06-03T10:02:32.903Z,3.40
2018-06-03T10:03:33.521Z,5.10
2018-06-03T10:04:34.177Z,3.40
2018-06-03T10:05:34.783Z,3.00
2018-06-03T10:06:35.473Z,3.90
2018-06-03T10:07:36.053Z,3.20
2018-06-03T10:08:36.658Z,2.90
2018-06-03T10:09:37.315Z,3.20
2018-06-03T10:10:37.912Z,3.10
2018-06-03T10:11:38.628Z,3.40
2018-06-03T10:12:39.364Z,3.20
2018-06-03T10:13:40.032Z,3.50
2018-06-03T10:14:40.617Z,3.10
2018-06-03T10:15:41.205Z,3.30
2018-06-03T10:16:41.865Z,3.10
2018-06-03T10:17:42.470Z,3.20
2018-06-03T10:18:43.092Z,4.00
2018-06-03T10:19:43.680Z,4.00
2018-06-03T10:20:44.308Z,3.20
2018-06-03T10:22:45.333Z,3.10
2018-06-03T10:23:45.938Z,3.10
2018-06-03T10:24:46.594Z,3.30
2018-06-03T10:25:47.259Z,2.80
2018-06-03T10:26:47.882Z,3.20
2018-06-03T10:27:48.540Z,3.30
2018-06-03T10:28:49.745Z,3.20
2018-06-03T10:29:50.389Z,3.00
2018-06-03T10:30:50.981Z,2.70
2018-06-03T10:31:51.605Z,2.70
2018-06-03T10:32:52.209Z,3.00
2018-06-03T10:33:52.881Z,3.50
2018-06-03T10:34:53.501Z,2.70
2018-06-03T10:35:54.156Z,2.80
2018-06-03T10:36:56.041Z,2.60
2018-06-03T10:37:56.699Z,2.70
2018-06-03T10:38:57.305Z,2.80
2018-06-03T10:39:57.944Z,5.30
2018-06-03T10:40:58.556Z,3.10
2018-06-03T10:41:59.159Z,3.10
2018-06-03T10:42:59.777Z,4.30
2018-06-03T10:44:00.400Z,3.00
2018-06-03T10:45:00.998Z,2.90
2018-06-03T10:46:01.598Z,2.90
2018-06-03T10:47:02.181Z,2.90
2018-06-03T10:48:02.753Z,3.10
2018-06-03T10:49:03.366Z,3.10
2018-06-03T10:50:03.945Z,3.00
2018-06-03T10:51:04.683Z,2.90
2018-06-03T10:52:05.290Z,3.20
2018-06-03T10:53:20.963Z,3.10
2018-06-03T10:54:21.586Z,2.80
2018-06-03T10:55:22.342Z,2.70
2018-06-03T10:56:22.927Z,4.50
2018-06-03T10:57:23.517Z,3.50
2018-06-03T10:59:24.492Z,3.00
2018-06-03T11:00:25.237Z,2.90
2018-06-03T11:01:25.826Z,2.70
2018-06-03T11:02:26.483Z,2.60
2018-06-03T11:03:27.083Z,2.80
2018-06-03T11:04:27.708Z,2.50
2018-06-03T11:05:28.313Z,2.60
2018-06-03T11:06:28.908Z,3.60
2018-06-03T11:07:29.508Z,4.10
2018-06-03T11:08:30.193Z,4.20
2018-06-03T11:09:30.806Z,2.70
2018-06-03T11:10:31.372Z,2.80
2018-06-03T11:11:31.993Z,2.80
2018-06-03T11:12:32.638Z,2.60
2018-06-03T11:13:33.251Z,2.70
2018-06-03T11:14:33.940Z,2.20
2018-06-03T11:15:34.566Z,2.80
2018-06-03T11:16:35.414Z,3.00
2018-06-03T11:17:36.064Z,2.50
2018-06-03T11:18:36.667Z,2.40
2018-06-03T11:19:37.270Z,2.40
2018-06-03T11:20:37.893Z,2.50
2018-06-03T11:21:38.532Z,3.70
2018-06-03T11:22:39.144Z,3.20
2018-06-03T11:23:39.830Z,2.70
2018-06-03T11:24:40.422Z,3.00
2018-06-03T11:25:41.040Z,2.50
2018-06-03T11:26:41.654Z,2.50
2018-06-03T11:28:42.519Z,2.80
2018-06-03T11:29:43.157Z,3.40
2018-06-03T11:30:43.753Z,2.50
2018-06-03T11:31:44.332Z,3.20
2018-06-03T11:32:44.901Z,2.50
2018-06-03T11:33:45.528Z,2.40
2018-06-03T11:34:46.146Z,2.70
2018-06-03T11:36:46.973Z,2.90
2018-06-03T11:37:47.571Z,4.30
2018-06-03T11:38:48.252Z,2.70
2018-06-03T11:39:48.932Z,2.80
2018-06-03T11:40:49.543Z,3.00
2018-06-03T11:41:50.123Z,4.80
2018-06-03T11:42:50.753Z,4.30
2018-06-03T11:43:51.422Z,4.80
2018-06-03T11:44:52.014Z,4.80
2018-06-03T11:45:52.670Z,3.30
2018-06-03T11:46:53.278Z,3.10
2018-06-03T11:47:53.869Z,3.00
2018-06-03T11:48:54.472Z,3.50
2018-06-03T11:49:55.197Z,3.90
2018-06-03T11:50:55.788Z,3.30
2018-06-03T11:51:56.394Z,2.70
2018-06-03T11:52:56.994Z,2.80
2018-06-03T11:53:57.609Z,2.60
2018-06-03T11:54:58.250Z,2.60
2018-06-03T11:55:58.933Z,2.50
2018-06-03T11:56:59.505Z,2.50
2018-06-03T11:58:00.192Z,2.20
2018-06-03T11:59:00.846Z,2.60
2018-06-03T12:00:01.516Z,2.50
2018-06-03T12:02:02.461Z,2.40
2018-06-03T12:04:03.783Z,2.30
2018-06-03T12:05:04.506Z,4.20
2018-06-03T12:06:05.148Z,3.80
2018-06-03T12:07:05.777Z,2.90
2018-06-03T12:08:06.396Z,2.70
2018-06-03T12:09:07.026Z,3.40
2018-06-03T12:10:07.652Z,2.50
2018-06-03T12:11:08.254Z,3.30
2018-06-03T12:12:08.841Z,2.40
2018-06-03T12:13:09.432Z,2.60
2018-06-03T12:14:10.073Z,2.50
2018-06-03T12:16:11.001Z,2.20
2018-06-03T12:17:11.602Z,2.60
2018-06-03T12:18:12.186Z,2.50
2018-06-03T12:19:12.957Z,2.50
2018-06-03T12:20:13.573Z,2.50
2018-06-03T12:21:14.173Z,2.60
2018-06-03T12:22:14.782Z,2.40
2018-06-03T12:23:15.356Z,2.60
2018-06-03T12:24:15.963Z,3.00
2018-06-03T12:25:16.563Z,2.40
2018-06-03T12:26:17.199Z,2.30
2018-06-03T12:28:18.052Z,2.40
2018-06-03T12:29:18.684Z,3.50
2018-06-03T12:30:19.295Z,2.50
2018-06-03T12:31:19.954Z,2.50
2018-06-03T12:32:20.558Z,2.60
2018-06-03T12:33:21.169Z,2.40
2018-06-03T12:34:21.756Z,2.30
2018-06-03T12:35:22.413Z,3.00
2018-06-03T12:36:23.070Z,3.30
2018-06-03T12:37:23.765Z,2.50
2018-06-03T12:38:24.363Z,2.30
2018-06-03T12:39:24.992Z,2.70
2018-06-03T12:40:25.587Z,2.50
2018-06-03T12:41:26.188Z,2.50
2018-06-03T12:42:26.759Z,2.70
2018-06-03T12:43:27.361Z,2.30
2018-06-03T12:44:27.937Z,2.50
2018-06-03T12:45:28.522Z,2.60
2018-06-03T12:46:29.241Z,2.40
2018-06-03T12:47:29.951Z,2.40
2018-06-03T12:48:30.527Z,2.50
2018-06-03T12:49:31.116Z,2.60
2018-06-03T12:50:31.698Z,2.40
2018-06-03T12:51:32.332Z,2.50
2018-06-03T12:52:32.922Z,2.50
2018-06-03T12:53:33.521Z,2.70
2018-06-03T12:54:34.109Z,2.40
2018-06-03T12:55:34.708Z,2.40
2018-06-03T12:56:35.441Z,2.70
2018-06-03T12:57:36.060Z,2.50
2018-06-03T12:58:36.640Z,2.70
2018-06-03T12:59:37.239Z,3.30
2018-06-03T13:00:37.904Z,2.40
2018-06-03T13:01:38.513Z,2.30
2018-06-03T13:02:39.110Z,2.40
2018-06-03T13:03:39.820Z,2.50
2018-06-03T13:04:40.404Z,2.60
2018-06-03T13:05:40.994Z,3.00
2018-06-03T13:06:41.692Z,2.40
2018-06-03T13:07:42.354Z,2.20
2018-06-03T13:08:42.946Z,2.90
2018-06-03T13:09:43.538Z,2.30
2018-06-03T13:10:44.178Z,2.80
2018-06-03T13:11:44.875Z,2.30
2018-06-03T13:13:45.749Z,2.80
2018-06-03T13:14:46.328Z,2.70
2018-06-03T13:15:46.917Z,3.70
2018-06-03T13:16:47.513Z,2.80
2018-06-03T13:17:48.128Z,2.30
2018-06-03T13:18:48.728Z,2.50
2018-06-03T13:19:49.554Z,2.80
2018-06-03T13:20:50.177Z,2.40
2018-06-03T13:21:50.780Z,2.20
2018-06-03T13:22:51.386Z,2.40
2018-06-03T13:23:51.979Z,2.30
2018-06-03T13:24:52.613Z,2.30
2018-06-03T13:25:54.037Z,2.50
2018-06-03T13:26:54.646Z,2.60
2018-06-03T13:27:55.224Z,2.60
2018-06-03T13:28:55.805Z,2.40
2018-06-03T13:29:56.416Z,3.30
2018-06-03T13:30:57.848Z,2.10
2018-06-03T13:31:58.517Z,2.50
2018-06-03T13:32:59.167Z,2.50
2018-06-03T13:33:59.808Z,2.40
2018-06-03T13:35:00.411Z,2.30
2018-06-03T13:36:01.033Z,2.40
2018-06-03T13:37:02.267Z,2.20
2018-06-03T13:38:02.883Z,2.70
2018-06-03T13:39:03.601Z,2.50
2018-06-03T13:40:04.228Z,2.80
2018-06-03T13:41:04.950Z,2.50
2018-06-03T13:42:05.609Z,2.60
2018-06-03T13:43:06.206Z,2.60
2018-06-03T13:44:06.829Z,2.40
2018-06-03T13:45:07.421Z,2.60
2018-06-03T13:46:08.159Z,2.20
2018-06-03T13:47:08.794Z,2.20
2018-06-03T13:48:09.393Z,2.30
2018-06-03T13:49:10.035Z,2.20
2018-06-03T13:50:10.616Z,2.40
2018-06-03T13:51:11.780Z,3.50
2018-06-03T13:52:12.377Z,2.40
2018-06-03T13:53:12.977Z,2.60
2018-06-03T13:54:13.613Z,3.80
2018-06-03T13:55:14.217Z,2.10
2018-06-03T13:56:14.900Z,2.40
2018-06-03T13:57:15.495Z,3.10
2018-06-03T13:58:16.146Z,2.70
2018-06-03T13:59:16.746Z,3.60
2018-06-03T14:00:17.327Z,2.50
2018-06-03T14:01:17.929Z,2.30
2018-06-03T14:02:25.041Z,2.40
2018-06-03T14:03:35.750Z,2.50
2018-06-03T14:04:38.650Z,2.40
2018-06-03T14:05:39.283Z,2.90
2018-06-03T14:06:39.959Z,2.30
2018-06-03T14:07:40.592Z,2.20
2018-06-03T14:08:41.176Z,2.40
2018-06-03T14:09:41.858Z,2.20
2018-06-03T14:10:42.434Z,3.80
2018-06-03T14:11:43.045Z,2.30
2018-06-03T14:12:43.638Z,2.40
2018-06-03T14:13:44.281Z,2.20
2018-06-03T14:14:44.970Z,2.60
2018-06-03T14:15:45.573Z,2.30
2018-06-03T14:16:46.171Z,2.40
2018-06-03T14:17:46.792Z,2.60
2018-06-03T14:18:47.784Z,2.20
2018-06-03T14:19:48.419Z,2.50
2018-06-03T14:20:49.024Z,3.20
2018-06-03T14:21:49.608Z,2.40
2018-06-03T14:22:50.294Z,2.10
2018-06-03T14:23:50.931Z,2.50
2018-06-03T14:24:51.578Z,2.40
2018-06-03T14:25:52.184Z,3.20
2018-06-03T14:26:52.788Z,2.70
2018-06-03T14:27:53.406Z,3.60
2018-06-03T14:28:54.018Z,2.20
2018-06-03T14:29:54.654Z,3.40
2018-06-03T14:30:55.295Z,2.80
2018-06-03T14:31:55.920Z,2.10
2018-06-03T14:32:57.621Z,2.40
2018-06-03T14:33:58.251Z,3.50
2018-06-03T14:34:58.978Z,2.50
2018-06-03T14:35:59.610Z,3.10
2018-06-03T14:37:00.254Z,2.30
2018-06-03T14:38:00.914Z,2.80
2018-06-03T14:39:01.513Z,2.20
2018-06-03T14:41:02.393Z,2.10
2018-06-03T14:42:02.989Z,2.40
2018-06-03T14:43:03.605Z,2.60
2018-06-03T14:44:04.242Z,2.70
2018-06-03T14:45:04.820Z,2.50
2018-06-03T14:46:05.458Z,3.00
2018-06-03T14:47:06.109Z,2.20
2018-06-03T14:48:06.804Z,2.20
2018-06-03T14:49:07.490Z,2.60
2018-06-03T14:50:08.081Z,2.20
2018-06-03T14:51:08.832Z,2.60
2018-06-03T14:52:09.458Z,2.70
2018-06-03T14:53:10.093Z,2.40
2018-06-03T14:54:10.702Z,2.50
2018-06-03T14:55:11.342Z,2.40
2018-06-03T14:56:11.957Z,2.40
2018-06-03T14:57:12.697Z,3.40
2018-06-03T14:58:13.348Z,2.60
2018-06-03T14:59:14.596Z,2.40
2018-06-03T15:00:15.224Z,2.60
2018-06-03T15:01:15.830Z,2.50
2018-06-03T15:02:16.396Z,2.30
2018-06-03T15:03:17.114Z,2.30
2018-06-03T15:04:17.699Z,2.20
2018-06-03T15:05:18.302Z,2.40
2018-06-03T15:06:18.858Z,2.20
2018-06-03T15:07:19.487Z,3.50
2018-06-03T15:08:20.249Z,2.40
2018-06-03T15:09:20.867Z,2.60
2018-06-03T15:10:21.479Z,2.40
2018-06-03T15:11:22.094Z,2.00
2018-06-03T15:12:22.700Z,2.30
2018-06-03T15:13:23.304Z,3.90
2018-06-03T15:14:23.872Z,2.10
2018-06-03T15:15:24.498Z,3.20
2018-06-03T15:16:25.076Z,3.90
2018-06-03T15:17:25.701Z,2.60
2018-06-03T15:18:26.302Z,3.10
2018-06-03T15:19:26.898Z,2.50
2018-06-03T15:20:27.530Z,2.30
2018-06-03T15:21:28.153Z,2.30
2018-06-03T15:22:28.829Z,2.50
2018-06-03T15:23:29.414Z,2.10
2018-06-03T15:24:30.025Z,2.40
2018-06-03T15:25:30.622Z,2.80
2018-06-03T15:26:31.233Z,2.50
2018-06-03T15:27:31.875Z,2.30
2018-06-03T15:28:32.486Z,2.30
2018-06-03T15:29:33.130Z,2.70
2018-06-03T15:30:33.897Z,2.80
2018-06-03T15:31:34.629Z,2.60
2018-06-03T15:32:35.231Z,2.30
2018-06-03T15:33:35.887Z,2.40
2018-06-03T15:34:36.501Z,2.60
2018-06-03T15:35:37.101Z,2.50
2018-06-03T15:36:37.682Z,2.20
2018-06-03T15:37:38.259Z,2.20
2018-06-03T15:38:38.841Z,2.20
2018-06-03T15:39:39.599Z,2.40
2018-06-03T15:40:40.197Z,2.20
2018-06-03T15:41:40.785Z,2.30
2018-06-03T15:42:41.448Z,3.70
2018-06-03T15:43:42.063Z,2.10
2018-06-03T15:44:42.663Z,2.60
2018-06-03T15:46:43.596Z,3.00
2018-06-03T15:47:44.211Z,2.30
2018-06-03T15:48:44.867Z,2.70
2018-06-03T15:50:45.821Z,3.20
2018-06-03T15:51:46.401Z,2.70
2018-06-03T15:52:47.043Z,2.30
2018-06-03T15:53:47.691Z,2.90
2018-06-03T15:54:48.283Z,2.50
2018-06-03T15:55:48.886Z,4.00
2018-06-03T15:56:49.611Z,2.40
2018-06-03T15:57:50.193Z,2.60
2018-06-03T15:58:50.896Z,2.40
2018-06-03T15:59:51.491Z,2.70
2018-06-03T16:00:52.071Z,2.30
2018-06-03T16:01:52.742Z,2.40
2018-06-03T16:02:53.362Z,5.30
2018-06-03T16:03:54.092Z,2.20
2018-06-03T16:04:54.728Z,4.00
2018-06-03T16:05:55.368Z,2.70
2018-06-03T16:06:55.972Z,3.20
2018-06-03T16:07:56.603Z,2.50
